createdAt,value
2023-05-04T00:00:10.481Z,8.38
2023-05-04T00:02:37.347Z,9.27
2023-05-04T00:05:06.131Z,9.20
2023-05-04T00:07:33.065Z,8.25
2023-05-04T00:10:01.181Z,7.85
2023-05-04T00:12:28.439Z,7.88
2023-05-04T00:14:55.281Z,8.20
2023-05-04T00:17:22.044Z,6.53
2023-05-04T00:19:48.808Z,6.88
2023-05-04T00:22:15.865Z,6.68
2023-05-04T00:24:44.160Z,7.03
2023-05-04T00:27:11.039Z,6.88
2023-05-04T00:29:38.039Z,6.65
2023-05-04T00:32:05.122Z,5.85
2023-05-04T00:34:34.146Z,6.32
2023-05-04T00:37:01.192Z,6.65
2023-05-04T00:39:27.978Z,5.90
2023-05-04T00:41:54.768Z,5.97
2023-05-04T00:44:23.779Z,5.88
2023-05-04T00:46:55.295Z,6.30
2023-05-04T00:49:23.134Z,5.63
2023-05-04T00:51:51.351Z,5.47
2023-05-04T00:54:20.731Z,6.05
2023-05-04T00:56:47.870Z,5.32
2023-05-04T00:59:14.667Z,5.78
2023-05-04T01:01:42.112Z,5.95
2023-05-04T01:04:09.286Z,5.60
2023-05-04T01:06:45.392Z,5.00
2023-05-04T01:09:37.910Z,4.80
2023-05-04T01:12:17.169Z,4.78
2023-05-04T01:14:44.488Z,4.53
2023-05-04T01:17:11.948Z,5.13
2023-05-04T01:19:38.810Z,5.15
2023-05-04T01:22:05.587Z,5.35
2023-05-04T01:24:32.742Z,5.00
2023-05-04T01:27:08.548Z,5.10
2023-05-04T01:29:45.225Z,5.93
2023-05-04T01:32:14.894Z,6.38
2023-05-04T01:34:42.174Z,6.90
2023-05-04T01:37:08.979Z,6.78
2023-05-04T01:39:35.785Z,6.15
2023-05-04T01:42:02.580Z,7.28
2023-05-04T01:44:29.381Z,7.80
2023-05-04T01:46:56.173Z,7.22
2023-05-04T01:49:23.085Z,8.70
2023-05-04T01:51:50.490Z,7.65
2023-05-04T01:54:17.220Z,8.50
2023-05-04T01:56:43.997Z,7.78
2023-05-04T01:59:10.811Z,8.88
2023-05-04T02:01:38.693Z,8.63
2023-05-04T02:04:06.007Z,10.63
2023-05-04T02:06:33.892Z,9.57
2023-05-04T02:09:00.747Z,11.40
2023-05-04T02:11:27.616Z,10.63
2023-05-04T02:13:54.356Z,11.05
2023-05-04T02:16:21.479Z,10.45
2023-05-04T02:18:48.262Z,12.13
2023-05-04T02:21:14.967Z,10.35
2023-05-04T02:23:41.662Z,12.60
2023-05-04T02:26:09.672Z,12.98
2023-05-04T02:28:36.378Z,12.07
2023-05-04T02:31:03.251Z,12.48
2023-05-04T02:33:30.096Z,11.95
2023-05-04T02:35:56.941Z,13.18
2023-05-04T02:38:23.629Z,11.85
2023-05-04T02:40:50.365Z,11.98
2023-05-04T02:43:17.372Z,12.38
2023-05-04T02:45:44.177Z,12.88
2023-05-04T02:48:11.034Z,11.55
2023-05-04T02:50:39.178Z,12.27
2023-05-04T02:53:05.911Z,12.20
2023-05-04T02:55:32.640Z,11.75
2023-05-04T02:57:59.456Z,12.80
2023-05-04T03:00:26.207Z,12.45
2023-05-04T03:02:53.244Z,13.18
2023-05-04T03:05:20.518Z,12.40
2023-05-04T03:07:47.265Z,12.70
2023-05-04T03:10:14.126Z,11.60
2023-05-04T03:12:41.090Z,13.02
2023-05-04T03:15:08.627Z,12.60
2023-05-04T03:17:35.471Z,12.38
2023-05-04T03:20:02.440Z,13.30
2023-05-04T03:22:29.304Z,11.27
2023-05-04T03:24:56.134Z,12.20
2023-05-04T03:27:22.784Z,11.95
2023-05-04T03:29:49.480Z,12.35
2023-05-04T03:32:16.308Z,12.35
2023-05-04T03:34:43.156Z,11.18
2023-05-04T03:37:09.921Z,11.80
2023-05-04T03:39:36.640Z,12.80
2023-05-04T03:42:04.609Z,12.52
2023-05-04T03:44:31.380Z,12.63
2023-05-04T03:46:58.118Z,12.68
2023-05-04T03:49:24.835Z,12.10
2023-05-04T03:51:51.756Z,12.80
2023-05-04T03:54:18.557Z,13.43
2023-05-04T03:56:45.579Z,12.90
2023-05-04T03:59:12.289Z,12.55
2023-05-04T04:01:39.024Z,13.85
2023-05-04T04:04:06.014Z,13.00
2023-05-04T04:06:32.890Z,13.00
2023-05-04T04:08:59.793Z,12.10
2023-05-04T04:11:26.697Z,12.43
2023-05-04T04:13:53.730Z,13.52
2023-05-04T04:16:21.294Z,12.57
2023-05-04T04:18:48.540Z,12.82
2023-05-04T04:21:15.317Z,12.30
2023-05-04T04:23:42.198Z,13.52
2023-05-04T04:26:09.342Z,11.93
2023-05-04T04:28:36.181Z,12.13
2023-05-04T04:31:04.551Z,11.57
2023-05-04T04:33:31.318Z,11.70
2023-05-04T04:35:58.015Z,11.60
2023-05-04T04:38:24.929Z,12.20
2023-05-04T04:40:51.725Z,11.38
2023-05-04T04:43:18.489Z,11.98
2023-05-04T04:45:45.751Z,11.73
2023-05-04T04:48:12.846Z,10.23
2023-05-04T04:50:40.259Z,10.80
2023-05-04T04:53:07.152Z,10.88
2023-05-04T04:55:35.609Z,10.15
2023-05-04T04:58:02.584Z,10.38
2023-05-04T05:00:29.883Z,10.68
2023-05-04T05:02:56.716Z,10.88
2023-05-04T05:05:23.550Z,10.40
2023-05-04T05:07:50.323Z,10.48
2023-05-04T05:10:17.322Z,9.48
2023-05-04T05:12:44.397Z,8.40
2023-05-04T05:15:11.483Z,7.30
2023-05-04T05:17:38.221Z,7.53
2023-05-04T05:20:12.225Z,8.45
2023-05-04T05:22:40.198Z,7.82
2023-05-04T05:25:10.619Z,6.53
2023-05-04T05:30:06.390Z,4.60
2023-05-04T05:32:33.697Z,5.07
2023-05-04T05:35:00.730Z,5.45
2023-05-04T05:37:27.760Z,3.97
2023-05-04T05:39:54.556Z,4.38
2023-05-04T05:42:21.379Z,3.90
2023-05-04T05:44:48.212Z,4.03
2023-05-04T05:47:15.003Z,3.97
2023-05-04T05:49:43.082Z,3.60
2023-05-04T05:52:11.642Z,3.85
2023-05-04T05:54:38.356Z,3.90
2023-05-04T05:57:05.295Z,3.20
2023-05-04T05:59:32.120Z,3.63
2023-05-04T06:01:58.970Z,3.30
2023-05-04T06:04:25.918Z,3.90
2023-05-04T06:06:52.894Z,3.55
2023-05-04T06:09:19.677Z,2.83
2023-05-04T06:11:46.499Z,2.50
2023-05-04T06:14:13.352Z,2.75
2023-05-04T06:16:40.290Z,2.42
2023-05-04T06:19:07.295Z,3.00
2023-05-04T06:21:34.024Z,2.50
2023-05-04T06:24:00.842Z,2.63
2023-05-04T06:26:27.632Z,2.13
2023-05-04T06:28:54.333Z,2.35
2023-05-04T06:31:21.150Z,2.10
2023-05-04T06:33:48.752Z,2.28
2023-05-04T06:36:15.451Z,2.20
2023-05-04T06:38:42.174Z,2.30
2023-05-04T06:41:08.986Z,2.42
2023-05-04T06:43:36.810Z,2.10
2023-05-04T06:46:04.232Z,2.15
2023-05-04T06:48:31.718Z,2.40
2023-05-04T06:51:00.077Z,2.03
2023-05-04T06:53:29.262Z,2.70
2023-05-04T06:55:56.074Z,2.33
2023-05-04T06:58:23.508Z,2.25
2023-05-04T07:00:50.963Z,2.20
2023-05-04T07:03:17.961Z,2.10
2023-05-04T07:05:45.396Z,2.08
2023-05-04T07:08:12.640Z,2.58
2023-05-04T07:10:39.593Z,2.60
2023-05-04T07:13:06.971Z,1.90
2023-05-04T07:15:33.991Z,2.10
2023-05-04T07:18:01.412Z,2.00
2023-05-04T07:20:28.447Z,2.15
2023-05-04T07:22:57.078Z,2.63
2023-05-04T07:25:25.230Z,2.17
2023-05-04T07:27:52.415Z,2.00
2023-05-04T07:30:21.884Z,2.03
2023-05-04T07:32:48.702Z,1.70
2023-05-04T07:35:15.576Z,2.10
2023-05-04T07:37:42.351Z,2.00
2023-05-04T07:40:10.468Z,2.17
2023-05-04T07:42:37.668Z,2.05
2023-05-04T07:45:05.032Z,1.35
2023-05-04T07:47:32.152Z,1.63
2023-05-04T07:49:59.080Z,1.98
2023-05-04T07:52:25.920Z,1.63
2023-05-04T07:54:53.563Z,1.77
2023-05-04T07:57:21.808Z,1.67
2023-05-04T07:59:48.571Z,2.05
2023-05-04T08:02:15.839Z,2.45
2023-05-04T08:04:42.643Z,2.20
2023-05-04T08:07:09.614Z,2.17
2023-05-04T08:09:37.738Z,2.03
2023-05-04T08:12:04.640Z,2.53
2023-05-04T08:14:31.371Z,2.40
2023-05-04T08:16:58.329Z,1.92
2023-05-04T08:19:25.914Z,2.15
2023-05-04T08:21:53.109Z,2.63
2023-05-04T08:24:19.931Z,3.00
2023-05-04T08:26:55.612Z,2.58
2023-05-04T08:29:26.805Z,2.25
2023-05-04T08:31:56.403Z,2.28
2023-05-04T08:34:23.309Z,2.35
2023-05-04T08:36:50.087Z,2.47
2023-05-04T08:39:18.564Z,2.00
2023-05-04T08:41:45.317Z,2.47
2023-05-04T08:44:12.095Z,1.73
2023-05-04T08:46:40.783Z,2.25
2023-05-04T08:49:07.766Z,2.60
2023-05-04T08:51:37.219Z,2.25
2023-05-04T08:54:10.936Z,2.50
2023-05-04T08:56:40.319Z,2.40
2023-05-04T08:59:09.776Z,2.33
2023-05-04T09:01:38.609Z,2.40
2023-05-04T09:04:05.897Z,2.30
2023-05-04T09:06:32.788Z,2.42
2023-05-04T09:08:59.533Z,2.22
2023-05-04T09:11:26.300Z,2.50
2023-05-04T09:13:53.414Z,2.20
2023-05-04T09:16:20.315Z,2.40
2023-05-04T09:18:47.741Z,2.17
2023-05-04T09:21:14.543Z,2.45
2023-05-04T09:23:53.979Z,2.47
2023-05-04T09:26:28.684Z,2.85
2023-05-04T09:28:56.042Z,2.95
2023-05-04T09:31:26.302Z,2.53
2023-05-04T09:36:21.940Z,2.80
2023-05-04T09:38:49.023Z,2.70
2023-05-04T09:41:16.344Z,2.55
2023-05-04T09:43:44.927Z,2.45
2023-05-04T09:46:18.809Z,2.95
2023-05-04T09:48:53.010Z,2.20
2023-05-04T09:51:22.377Z,2.53
2023-05-04T09:53:52.799Z,2.43
2023-05-04T09:56:26.767Z,2.75
2023-05-04T09:58:57.810Z,2.63
2023-05-04T10:01:27.879Z,2.15
2023-05-04T10:03:55.237Z,2.47
2023-05-04T10:06:22.653Z,2.40
2023-05-04T10:08:50.931Z,2.10
2023-05-04T10:11:19.232Z,2.30
2023-05-04T10:13:47.046Z,2.55
2023-05-04T10:16:24.518Z,2.05
2023-05-04T10:19:10.542Z,2.22
2023-05-04T10:21:42.356Z,2.50
2023-05-04T10:24:21.646Z,2.13
2023-05-04T10:27:05.275Z,2.20
2023-05-04T10:29:35.924Z,2.40
2023-05-04T10:32:03.406Z,2.10
2023-05-04T10:34:31.684Z,2.28
2023-05-04T10:36:59.627Z,2.65
2023-05-04T10:39:31.016Z,2.22
2023-05-04T10:42:02.107Z,2.13
2023-05-04T10:44:29.664Z,2.30
2023-05-04T10:46:59.560Z,2.65
2023-05-04T10:52:06.553Z,2.38
2023-05-04T10:54:34.083Z,1.98
2023-05-04T10:57:04.933Z,1.85
2023-05-04T10:59:32.803Z,2.33
2023-05-04T11:02:01.932Z,2.35
2023-05-04T11:04:29.309Z,2.20
2023-05-04T11:07:06.734Z,2.30
2023-05-04T11:09:38.339Z,2.38
2023-05-04T11:12:05.754Z,2.17
2023-05-04T11:14:37.618Z,2.05
2023-05-04T11:17:27.612Z,27.13
2023-05-04T11:19:57.552Z,3.28
2023-05-04T11:22:24.963Z,2.30
2023-05-04T11:24:52.846Z,11.20
2023-05-04T11:27:23.208Z,3.33
2023-05-04T11:29:54.440Z,2.55
2023-05-04T11:32:21.589Z,13.75
2023-05-04T11:34:48.933Z,43.90
2023-05-04T11:37:16.004Z,5.68
2023-05-04T11:39:43.103Z,4.63
2023-05-04T11:42:10.391Z,5.60
2023-05-04T11:44:38.168Z,7.13
2023-05-04T11:47:05.411Z,24.27
2023-05-04T11:49:32.824Z,28.27
2023-05-04T11:52:09.549Z,3.95
2023-05-04T11:54:40.599Z,2.30
2023-05-04T11:57:07.983Z,2.97
2023-05-04T11:59:35.104Z,2.35
2023-05-04T12:02:02.249Z,2.60
2023-05-04T12:04:32.610Z,2.10
2023-05-04T12:07:01.769Z,2.60
2023-05-04T12:09:29.077Z,2.90
2023-05-04T12:11:56.442Z,2.20
2023-05-04T12:14:30.565Z,4.15
2023-05-04T12:17:03.537Z,2.25
2023-05-04T12:19:31.334Z,2.10
2023-05-04T12:21:58.812Z,11.73
2023-05-04T12:24:28.582Z,2.70
2023-05-04T12:26:55.726Z,2.40
2023-05-04T12:29:22.868Z,2.35
2023-05-04T12:31:50.669Z,2.08
2023-05-04T12:34:17.782Z,2.88
2023-05-04T12:36:45.017Z,11.60
2023-05-04T12:39:12.164Z,2.25
2023-05-04T12:41:40.170Z,2.28
2023-05-04T12:44:08.706Z,2.33
2023-05-04T12:46:36.014Z,2.20
2023-05-04T12:49:03.363Z,5.57
2023-05-04T12:51:30.528Z,2.10
2023-05-04T12:53:58.113Z,3.35
2023-05-04T12:56:25.219Z,2.28
2023-05-04T12:58:52.360Z,2.20
2023-05-04T13:01:19.718Z,3.88
2023-05-04T13:03:46.981Z,5.07
2023-05-04T13:06:14.688Z,12.40
2023-05-04T13:08:42.010Z,4.43
2023-05-04T13:11:09.104Z,2.20
2023-05-04T13:13:37.407Z,1.90
2023-05-04T13:16:05.933Z,2.25
2023-05-04T13:18:36.190Z,1.80
2023-05-04T13:23:30.850Z,2.20
2023-05-04T13:25:58.022Z,2.30
2023-05-04T13:28:25.212Z,1.90
2023-05-04T13:30:52.665Z,2.13
2023-05-04T13:33:29.550Z,1.90
2023-05-04T13:35:58.359Z,2.35
2023-05-04T13:38:25.907Z,1.85
2023-05-04T13:40:53.054Z,2.78
2023-05-04T13:43:20.379Z,2.63
2023-05-04T13:45:48.336Z,1.90
2023-05-04T13:48:15.444Z,2.03
2023-05-04T13:50:42.617Z,2.00
2023-05-04T13:53:12.820Z,1.90
2023-05-04T13:58:07.475Z,1.85
2023-05-04T14:00:34.688Z,1.83
2023-05-04T14:03:02.194Z,3.00
2023-05-04T14:05:29.839Z,4.45
2023-05-04T14:07:57.517Z,3.78
2023-05-04T14:10:24.716Z,1.88
2023-05-04T14:12:51.903Z,2.20
2023-05-04T14:15:22.551Z,2.40
2023-05-04T14:17:51.326Z,2.28
2023-05-04T14:20:18.648Z,2.63
2023-05-04T14:22:45.966Z,2.30
2023-05-04T14:25:14.994Z,2.13
2023-05-04T14:27:45.074Z,1.92
2023-05-04T14:30:13.040Z,2.33
2023-05-04T14:32:41.133Z,1.77
2023-05-04T14:35:09.939Z,1.83
2023-05-04T14:37:38.361Z,2.20
2023-05-04T14:40:06.629Z,1.75
2023-05-04T14:42:34.223Z,2.35
2023-05-04T14:45:01.564Z,1.90
2023-05-04T14:47:29.541Z,2.00
2023-05-04T14:49:57.677Z,2.15
2023-05-04T14:52:25.108Z,2.20
2023-05-04T14:54:52.807Z,1.70
2023-05-04T14:57:19.984Z,2.17
2023-05-04T14:59:47.124Z,1.70
2023-05-04T15:02:14.883Z,1.85
2023-05-04T15:04:42.138Z,1.80
2023-05-04T15:07:09.473Z,1.38
2023-05-04T15:09:38.202Z,1.90
2023-05-04T15:12:05.516Z,1.73
2023-05-04T15:14:32.777Z,1.67
2023-05-04T15:16:59.913Z,1.80
2023-05-04T15:19:27.101Z,2.03
2023-05-04T15:21:54.249Z,1.80
2023-05-04T15:24:21.520Z,2.10
2023-05-04T15:26:48.717Z,2.20
2023-05-04T15:29:15.993Z,1.48
2023-05-04T15:31:43.189Z,2.13
2023-05-04T15:34:10.400Z,1.63
2023-05-04T15:36:37.528Z,1.88
2023-05-04T15:39:05.834Z,1.80
2023-05-04T15:41:32.945Z,2.15
2023-05-04T15:44:00.133Z,2.10
2023-05-04T15:46:27.502Z,2.35
2023-05-04T15:48:55.449Z,1.75
2023-05-04T15:51:22.558Z,1.75
2023-05-04T15:53:49.663Z,2.08
2023-05-04T15:56:16.848Z,1.63
2023-05-04T15:58:46.880Z,2.45
2023-05-04T16:01:14.649Z,2.10
2023-05-04T16:03:44.286Z,1.98
2023-05-04T16:06:12.572Z,2.25
2023-05-04T16:08:39.835Z,1.90
2023-05-04T16:11:07.734Z,2.40
2023-05-04T16:13:35.178Z,2.03
2023-05-04T16:16:02.355Z,2.05
2023-05-04T16:18:29.606Z,2.13
2023-05-04T16:20:56.811Z,1.40
2023-05-04T16:23:24.043Z,2.10
2023-05-04T16:25:51.152Z,2.05
2023-05-04T16:28:18.253Z,2.30
2023-05-04T16:30:45.667Z,1.77
2023-05-04T16:33:13.138Z,3.13
2023-05-04T16:35:41.365Z,2.17
2023-05-04T16:38:10.423Z,2.33
2023-05-04T16:40:37.596Z,1.83
2023-05-04T16:43:05.352Z,2.20
2023-05-04T16:45:33.008Z,2.58
2023-05-04T16:48:01.094Z,1.73
2023-05-04T16:50:29.723Z,2.10
2023-05-04T16:52:59.895Z,1.60
2023-05-04T16:55:27.413Z,1.83
2023-05-04T16:57:57.882Z,2.63
2023-05-04T17:00:25.964Z,2.45
2023-05-04T17:02:55.193Z,3.33
2023-05-04T17:05:22.515Z,3.47
2023-05-04T17:07:49.713Z,3.08
2023-05-04T17:10:18.284Z,2.90
2023-05-04T17:12:45.513Z,2.72
2023-05-04T17:15:12.896Z,2.20
2023-05-04T17:17:41.207Z,3.00
2023-05-04T17:20:09.456Z,2.10
2023-05-04T17:22:37.060Z,2.50
2023-05-04T17:25:04.328Z,2.50
2023-05-04T17:27:31.420Z,2.50
2023-05-04T17:29:58.534Z,2.33
2023-05-04T17:32:25.692Z,2.85
2023-05-04T17:34:52.835Z,3.08
2023-05-04T17:37:19.979Z,2.67
2023-05-04T17:39:47.220Z,2.85
2023-05-04T17:42:17.084Z,3.47
2023-05-04T17:44:44.578Z,3.22
2023-05-04T17:47:11.807Z,4.40
2023-05-04T17:49:38.938Z,4.10
2023-05-04T17:52:06.182Z,4.05
2023-05-04T17:54:33.315Z,4.03
2023-05-04T17:57:00.660Z,3.30
2023-05-04T17:59:28.018Z,3.90
2023-05-04T18:01:55.215Z,4.75
2023-05-04T18:04:22.422Z,4.57
2023-05-04T18:06:50.826Z,4.43
2023-05-04T18:09:19.777Z,4.93
2023-05-04T18:11:47.594Z,5.72
2023-05-04T18:14:14.811Z,4.97
2023-05-04T18:16:42.103Z,6.65
2023-05-04T18:19:09.311Z,5.88
2023-05-04T18:21:37.128Z,6.30
2023-05-04T18:24:04.863Z,6.43
2023-05-04T18:26:34.044Z,6.90
2023-05-04T18:29:11.312Z,7.05
2023-05-04T18:31:44.745Z,7.60
2023-05-04T18:34:12.209Z,9.93
2023-05-04T18:36:41.018Z,12.10
2023-05-04T18:39:08.920Z,11.57
2023-05-04T18:41:36.190Z,10.68
2023-05-04T18:44:03.609Z,11.30
2023-05-04T18:46:31.329Z,9.52
2023-05-04T18:49:00.524Z,10.32
2023-05-04T18:51:28.014Z,11.05
2023-05-04T18:57:37.122Z,10.65
2023-05-04T19:00:12.820Z,12.57
2023-05-04T19:02:40.162Z,13.85
2023-05-04T19:05:09.766Z,14.10
2023-05-04T19:07:38.302Z,13.00
2023-05-04T19:10:09.120Z,11.98
2023-05-04T19:12:36.596Z,10.73
2023-05-04T19:15:11.817Z,11.63
2023-05-04T19:17:40.380Z,14.50
2023-05-04T19:20:08.931Z,21.33
2023-05-04T19:22:36.404Z,28.50
2023-05-04T19:25:04.425Z,32.22
2023-05-04T19:27:31.672Z,30.48
2023-05-04T19:29:58.777Z,31.85
2023-05-04T19:32:26.514Z,25.08
2023-05-04T19:34:53.843Z,21.02
2023-05-04T19:37:21.479Z,18.50
2023-05-04T19:39:48.735Z,18.05
2023-05-04T19:42:16.241Z,15.63
2023-05-04T19:44:44.136Z,16.95
2023-05-04T19:47:11.417Z,17.48
2023-05-04T19:49:39.099Z,16.50
2023-05-04T19:52:07.255Z,18.15
2023-05-04T19:54:34.876Z,17.05
2023-05-04T19:57:01.979Z,18.55
2023-05-04T19:59:31.931Z,18.50
2023-05-04T20:02:00.221Z,16.85
2023-05-04T20:04:27.559Z,16.83
2023-05-04T20:06:54.765Z,17.63
2023-05-04T20:09:21.855Z,15.93
2023-05-04T20:11:49.011Z,15.68
2023-05-04T20:14:16.309Z,15.10
2023-05-04T20:16:43.438Z,16.80
2023-05-04T20:19:10.594Z,15.52
2023-05-04T20:21:40.252Z,16.73
2023-05-04T20:24:08.441Z,15.85
2023-05-04T20:26:35.586Z,14.63
2023-05-04T20:29:02.774Z,15.65
2023-05-04T20:31:30.297Z,15.80
2023-05-04T20:33:57.454Z,16.20
2023-05-04T20:36:24.654Z,15.55
2023-05-04T20:38:51.936Z,16.42
2023-05-04T20:41:19.024Z,18.63
2023-05-04T20:43:46.238Z,17.38
2023-05-04T20:46:13.427Z,17.95
2023-05-04T20:48:40.780Z,17.77
2023-05-04T20:51:14.803Z,17.98
2023-05-04T20:53:42.515Z,18.83
2023-05-04T20:56:10.225Z,17.35
2023-05-04T20:58:38.443Z,18.60
2023-05-04T21:01:06.111Z,18.05
2023-05-04T21:03:34.093Z,18.30
2023-05-04T21:06:02.140Z,19.50
2023-05-04T21:08:29.309Z,19.00
2023-05-04T21:10:56.404Z,23.58
2023-05-04T21:13:23.659Z,23.30
2023-05-04T21:15:51.338Z,27.77
2023-05-04T21:18:19.564Z,27.30
2023-05-04T21:20:48.100Z,25.65
2023-05-04T21:23:15.296Z,24.85
2023-05-04T21:25:42.568Z,24.80
2023-05-04T21:28:09.853Z,24.77
2023-05-04T21:30:37.233Z,24.38
2023-05-04T21:33:04.388Z,24.27
2023-05-04T21:35:31.616Z,23.75
2023-05-04T21:37:59.561Z,21.60
2023-05-04T21:40:29.895Z,19.88
2023-05-04T21:42:56.991Z,21.45
2023-05-04T21:45:24.091Z,19.00
2023-05-04T21:47:51.421Z,18.25
2023-05-04T21:50:18.556Z,18.45
2023-05-04T21:52:45.643Z,17.85
2023-05-04T21:55:12.754Z,18.00
2023-05-04T21:57:39.859Z,17.75
2023-05-04T22:00:13.100Z,16.40
2023-05-04T22:02:40.258Z,17.67
2023-05-04T22:05:07.462Z,18.45
2023-05-04T22:07:36.597Z,17.65
2023-05-04T22:10:04.514Z,16.42
2023-05-04T22:12:31.787Z,16.20
2023-05-04T22:14:58.895Z,17.10
2023-05-04T22:17:26.067Z,16.33
2023-05-04T22:19:53.239Z,15.80
2023-05-04T22:22:20.438Z,15.55
2023-05-04T22:24:47.549Z,15.52
2023-05-04T22:27:14.649Z,15.90
2023-05-04T22:29:42.017Z,15.00
2023-05-04T22:32:09.166Z,15.15
2023-05-04T22:34:36.387Z,15.68
2023-05-04T22:37:03.580Z,14.80
2023-05-04T22:39:30.660Z,15.60
2023-05-04T22:41:57.769Z,15.68
2023-05-04T22:44:24.914Z,16.30
2023-05-04T22:46:51.996Z,16.98
2023-05-04T22:49:19.175Z,16.70
2023-05-04T22:51:46.416Z,16.30
2023-05-04T22:54:13.485Z,17.05
2023-05-04T22:56:40.571Z,19.20
2023-05-04T22:59:07.724Z,18.08
2023-05-04T23:01:34.961Z,18.25
2023-05-04T23:04:02.133Z,17.67
2023-05-04T23:06:29.333Z,18.23
2023-05-04T23:08:56.757Z,16.92
2023-05-04T23:11:23.935Z,18.00
2023-05-04T23:13:51.130Z,16.48
2023-05-04T23:16:18.296Z,17.63
2023-05-04T23:18:45.503Z,16.48
2023-05-04T23:21:12.646Z,16.42
2023-05-04T23:23:41.360Z,14.70
2023-05-04T23:26:08.795Z,15.32
2023-05-04T23:28:36.014Z,14.90
2023-05-04T23:31:03.385Z,14.07
2023-05-04T23:33:30.602Z,14.80
2023-05-04T23:35:57.689Z,14.05
2023-05-04T23:38:25.018Z,14.02
2023-05-04T23:40:52.566Z,14.30
2023-05-04T23:43:19.695Z,14.43
2023-05-04T23:45:46.841Z,14.32
2023-05-04T23:48:13.967Z,14.55
2023-05-04T23:50:41.100Z,14.15
2023-05-04T23:53:08.295Z,14.25
2023-05-04T23:55:35.921Z,13.82
2023-05-04T23:58:03.058Z,14.45
